sensor_id;sensor_type;location;lat;lon;timestamp;temperature;humidity
80540;DHT22;69869;48.036;15.780;2023-06-22T00:00:58;21.00;87.70
80540;DHT22;69869;48.036;15.780;2023-06-22T00:03:24;21.00;87.90
80540;DHT22;69869;48.036;15.780;2023-06-22T00:05:51;21.00;87.60
80540;DHT22;69869;48.036;15.780;2023-06-22T00:08:18;21.00;87.90
80540;DHT22;69869;48.036;15.780;2023-06-22T00:10:45;21.00;87.90
80540;DHT22;69869;48.036;15.780;2023-06-22T00:13:11;21.00;87.80
80540;DHT22;69869;48.036;15.780;2023-06-22T00:15:41;21.00;87.60
80540;DHT22;69869;48.036;15.780;2023-06-22T00:18:07;21.00;87.90
80540;DHT22;69869;48.036;15.780;2023-06-22T00:20:33;21.00;87.90
80540;DHT22;69869;48.036;15.780;2023-06-22T00:23:03;21.00;87.90
80540;DHT22;69869;48.036;15.780;2023-06-22T00:25:38;21.00;87.70
80540;DHT22;69869;48.036;15.780;2023-06-22T00:28:07;21.00;87.90
80540;DHT22;69869;48.036;15.780;2023-06-22T00:30:33;21.00;87.90
80540;DHT22;69869;48.036;15.780;2023-06-22T00:32:59;21.00;87.90
80540;DHT22;69869;48.036;15.780;2023-06-22T00:35:26;21.00;87.90
80540;DHT22;69869;48.036;15.780;2023-06-22T00:37:55;21.00;87.90
80540;DHT22;69869;48.036;15.780;2023-06-22T00:40:26;21.00;87.90
80540;DHT22;69869;48.036;15.780;2023-06-22T00:42:52;21.00;87.90
80540;DHT22;69869;48.036;15.780;2023-06-22T00:45:18;21.00;87.90
80540;DHT22;69869;48.036;15.780;2023-06-22T00:47:44;21.00;87.90
80540;DHT22;69869;48.036;15.780;2023-06-22T00:50:12;21.00;88.00
80540;DHT22;69869;48.036;15.780;2023-06-22T00:52:43;21.00;87.80
80540;DHT22;69869;48.036;15.780;2023-06-22T00:55:10;21.00;87.90
80540;DHT22;69869;48.036;15.780;2023-06-22T00:57:35;21.00;87.90
80540;DHT22;69869;48.036;15.780;2023-06-22T01:00:03;21.00;88.00
80540;DHT22;69869;48.036;15.780;2023-06-22T01:02:33;21.00;88.00
80540;DHT22;69869;48.036;15.780;2023-06-22T01:04:59;21.00;87.90
80540;DHT22;69869;48.036;15.780;2023-06-22T01:12:23;21.00;87.90
80540;DHT22;69869;48.036;15.780;2023-06-22T01:15:02;21.00;87.90
80540;DHT22;69869;48.036;15.780;2023-06-22T01:17:31;21.00;87.80
80540;DHT22;69869;48.036;15.780;2023-06-22T01:19:58;21.00;87.90
80540;DHT22;69869;48.036;15.780;2023-06-22T01:22:28;21.00;87.90
80540;DHT22;69869;48.036;15.780;2023-06-22T01:28:36;21.00;88.30
80540;DHT22;69869;48.036;15.780;2023-06-22T01:31:03;21.00;88.70
80540;DHT22;69869;48.036;15.780;2023-06-22T01:33:33;21.00;87.90
80540;DHT22;69869;48.036;15.780;2023-06-22T01:36:01;21.00;87.90
80540;DHT22;69869;48.036;15.780;2023-06-22T01:38:29;21.00;88.00
80540;DHT22;69869;48.036;15.780;2023-06-22T01:40:56;21.00;87.90
80540;DHT22;69869;48.036;15.780;2023-06-22T01:43:23;21.00;88.00
80540;DHT22;69869;48.036;15.780;2023-06-22T01:45:50;21.00;88.00
80540;DHT22;69869;48.036;15.780;2023-06-22T01:48:16;21.00;88.20
80540;DHT22;69869;48.036;15.780;2023-06-22T01:50:43;21.00;87.90
80540;DHT22;69869;48.036;15.780;2023-06-22T01:53:09;21.00;88.10
80540;DHT22;69869;48.036;15.780;2023-06-22T01:55:34;21.00;87.90
80540;DHT22;69869;48.036;15.780;2023-06-22T01:58:00;21.00;88.00
80540;DHT22;69869;48.036;15.780;2023-06-22T02:00:27;21.00;88.10
80540;DHT22;69869;48.036;15.780;2023-06-22T02:03:10;21.00;88.30
80540;DHT22;69869;48.036;15.780;2023-06-22T02:05:39;21.00;88.50
80540;DHT22;69869;48.036;15.780;2023-06-22T02:08:46;21.00;87.90
80540;DHT22;69869;48.036;15.780;2023-06-22T02:11:13;21.00;88.60
80540;DHT22;69869;48.036;15.780;2023-06-22T02:13:40;21.00;87.90
80540;DHT22;69869;48.036;15.780;2023-06-22T02:16:10;21.00;87.90
80540;DHT22;69869;48.036;15.780;2023-06-22T02:18:37;21.00;87.90
80540;DHT22;69869;48.036;15.780;2023-06-22T02:21:03;21.00;88.00
80540;DHT22;69869;48.036;15.780;2023-06-22T02:23:28;21.00;88.10
80540;DHT22;69869;48.036;15.780;2023-06-22T02:25:54;21.00;88.00
80540;DHT22;69869;48.036;15.780;2023-06-22T02:28:20;21.00;87.90
80540;DHT22;69869;48.036;15.780;2023-06-22T02:30:45;21.00;88.10
80540;DHT22;69869;48.036;15.780;2023-06-22T02:33:11;21.00;88.20
80540;DHT22;69869;48.036;15.780;2023-06-22T02:35:37;21.00;88.10
80540;DHT22;69869;48.036;15.780;2023-06-22T02:38:03;21.00;87.90
80540;DHT22;69869;48.036;15.780;2023-06-22T02:40:30;21.00;87.90
80540;DHT22;69869;48.036;15.780;2023-06-22T02:42:56;21.10;88.00
80540;DHT22;69869;48.036;15.780;2023-06-22T02:45:23;21.00;88.00
80540;DHT22;69869;48.036;15.780;2023-06-22T02:47:49;21.00;87.90
80540;DHT22;69869;48.036;15.780;2023-06-22T02:50:17;21.00;87.90
80540;DHT22;69869;48.036;15.780;2023-06-22T02:52:43;21.00;87.90
80540;DHT22;69869;48.036;15.780;2023-06-22T02:55:11;21.00;87.90
80540;DHT22;69869;48.036;15.780;2023-06-22T02:57:37;21.00;87.90
80540;DHT22;69869;48.036;15.780;2023-06-22T03:00:05;21.00;88.30
80540;DHT22;69869;48.036;15.780;2023-06-22T03:02:42;21.00;87.90
80540;DHT22;69869;48.036;15.780;2023-06-22T03:05:07;21.00;88.10
80540;DHT22;69869;48.036;15.780;2023-06-22T03:07:41;21.00;88.40
80540;DHT22;69869;48.036;15.780;2023-06-22T03:10:09;21.00;89.20
80540;DHT22;69869;48.036;15.780;2023-06-22T03:12:35;21.00;88.00
80540;DHT22;69869;48.036;15.780;2023-06-22T03:15:01;21.00;88.00
80540;DHT22;69869;48.036;15.780;2023-06-22T03:17:27;21.00;87.90
80540;DHT22;69869;48.036;15.780;2023-06-22T03:19:52;21.00;88.20
80540;DHT22;69869;48.036;15.780;2023-06-22T03:22:18;21.00;87.90
80540;DHT22;69869;48.036;15.780;2023-06-22T03:24:44;21.00;88.30
80540;DHT22;69869;48.036;15.780;2023-06-22T03:27:09;21.00;88.20
80540;DHT22;69869;48.036;15.780;2023-06-22T03:29:35;21.00;88.10
80540;DHT22;69869;48.036;15.780;2023-06-22T03:32:01;21.00;88.10
80540;DHT22;69869;48.036;15.780;2023-06-22T03:34:26;21.00;87.90
80540;DHT22;69869;48.036;15.780;2023-06-22T03:36:52;21.00;87.90
80540;DHT22;69869;48.036;15.780;2023-06-22T03:39:18;21.00;87.90
80540;DHT22;69869;48.036;15.780;2023-06-22T03:41:43;21.10;88.70
80540;DHT22;69869;48.036;15.780;2023-06-22T03:44:09;21.10;87.60
80540;DHT22;69869;48.036;15.780;2023-06-22T03:46:38;21.10;87.90
80540;DHT22;69869;48.036;15.780;2023-06-22T03:49:06;21.10;88.30
80540;DHT22;69869;48.036;15.780;2023-06-22T03:51:32;21.10;87.20
80540;DHT22;69869;48.036;15.780;2023-06-22T03:53:58;21.10;87.40
80540;DHT22;69869;48.036;15.780;2023-06-22T03:56:24;21.10;87.10
80540;DHT22;69869;48.036;15.780;2023-06-22T03:58:49;21.10;87.60
80540;DHT22;69869;48.036;15.780;2023-06-22T04:01:15;21.10;87.30
80540;DHT22;69869;48.036;15.780;2023-06-22T04:03:42;21.10;87.50
80540;DHT22;69869;48.036;15.780;2023-06-22T04:06:08;21.10;87.60
80540;DHT22;69869;48.036;15.780;2023-06-22T04:08:34;21.10;88.00
80540;DHT22;69869;48.036;15.780;2023-06-22T04:10:59;21.00;87.90
80540;DHT22;69869;48.036;15.780;2023-06-22T04:13:25;21.00;87.90
80540;DHT22;69869;48.036;15.780;2023-06-22T04:15:51;21.00;87.90
80540;DHT22;69869;48.036;15.780;2023-06-22T04:18:16;21.00;87.90
80540;DHT22;69869;48.036;15.780;2023-06-22T04:20:42;21.00;87.90
80540;DHT22;69869;48.036;15.780;2023-06-22T04:23:11;21.00;87.90
80540;DHT22;69869;48.036;15.780;2023-06-22T04:25:37;21.00;87.90
80540;DHT22;69869;48.036;15.780;2023-06-22T04:28:03;21.00;87.90
80540;DHT22;69869;48.036;15.780;2023-06-22T04:30:29;21.00;88.00
80540;DHT22;69869;48.036;15.780;2023-06-22T04:32:57;21.00;87.90
80540;DHT22;69869;48.036;15.780;2023-06-22T04:35:24;21.00;88.00
80540;DHT22;69869;48.036;15.780;2023-06-22T04:37:50;21.00;87.90
80540;DHT22;69869;48.036;15.780;2023-06-22T04:40:15;21.10;88.00
80540;DHT22;69869;48.036;15.780;2023-06-22T04:42:41;21.10;88.00
80540;DHT22;69869;48.036;15.780;2023-06-22T04:45:17;21.10;88.00
80540;DHT22;69869;48.036;15.780;2023-06-22T04:47:43;21.10;88.00
80540;DHT22;69869;48.036;15.780;2023-06-22T04:50:11;21.10;87.80
80540;DHT22;69869;48.036;15.780;2023-06-22T04:52:37;21.10;88.10
80540;DHT22;69869;48.036;15.780;2023-06-22T04:55:03;21.10;87.80
80540;DHT22;69869;48.036;15.780;2023-06-22T04:57:29;21.10;87.70
80540;DHT22;69869;48.036;15.780;2023-06-22T05:00:01;21.10;87.70
80540;DHT22;69869;48.036;15.780;2023-06-22T05:02:41;21.10;87.80
80540;DHT22;69869;48.036;15.780;2023-06-22T05:05:08;21.10;87.90
80540;DHT22;69869;48.036;15.780;2023-06-22T05:07:34;21.10;88.00
80540;DHT22;69869;48.036;15.780;2023-06-22T05:10:01;21.10;88.00
80540;DHT22;69869;48.036;15.780;2023-06-22T05:12:28;21.10;88.00
80540;DHT22;69869;48.036;15.780;2023-06-22T05:14:54;21.10;87.90
80540;DHT22;69869;48.036;15.780;2023-06-22T05:17:20;21.10;88.10
80540;DHT22;69869;48.036;15.780;2023-06-22T05:19:46;21.10;88.00
80540;DHT22;69869;48.036;15.780;2023-06-22T05:22:15;21.10;88.10
80540;DHT22;69869;48.036;15.780;2023-06-22T05:24:41;21.10;88.00
80540;DHT22;69869;48.036;15.780;2023-06-22T05:27:07;21.10;88.00
80540;DHT22;69869;48.036;15.780;2023-06-22T05:29:32;21.10;88.00
80540;DHT22;69869;48.036;15.780;2023-06-22T05:31:58;21.10;87.80
80540;DHT22;69869;48.036;15.780;2023-06-22T05:34:24;21.10;87.70
80540;DHT22;69869;48.036;15.780;2023-06-22T05:36:50;21.10;87.90
80540;DHT22;69869;48.036;15.780;2023-06-22T05:39:15;21.10;87.70
80540;DHT22;69869;48.036;15.780;2023-06-22T05:41:41;21.10;87.80
80540;DHT22;69869;48.036;15.780;2023-06-22T05:44:08;21.10;87.80
80540;DHT22;69869;48.036;15.780;2023-06-22T05:46:34;21.10;87.70
80540;DHT22;69869;48.036;15.780;2023-06-22T05:49:00;21.10;88.40
80540;DHT22;69869;48.036;15.780;2023-06-22T05:51:26;21.10;87.70
80540;DHT22;69869;48.036;15.780;2023-06-22T05:53:51;21.10;87.70
80540;DHT22;69869;48.036;15.780;2023-06-22T05:56:17;21.10;87.60
80540;DHT22;69869;48.036;15.780;2023-06-22T05:58:43;21.10;87.40
80540;DHT22;69869;48.036;15.780;2023-06-22T06:01:08;21.10;87.40
80540;DHT22;69869;48.036;15.780;2023-06-22T06:03:34;21.10;87.30
80540;DHT22;69869;48.036;15.780;2023-06-22T06:06:13;21.10;87.50
80540;DHT22;69869;48.036;15.780;2023-06-22T06:08:39;21.10;87.30
80540;DHT22;69869;48.036;15.780;2023-06-22T06:11:05;21.10;87.30
80540;DHT22;69869;48.036;15.780;2023-06-22T06:13:31;21.10;87.40
80540;DHT22;69869;48.036;15.780;2023-06-22T06:15:57;21.10;87.40
80540;DHT22;69869;48.036;15.780;2023-06-22T06:18:23;21.10;87.30
80540;DHT22;69869;48.036;15.780;2023-06-22T06:20:49;21.10;87.30
80540;DHT22;69869;48.036;15.780;2023-06-22T06:23:14;21.10;87.30
80540;DHT22;69869;48.036;15.780;2023-06-22T06:25:40;21.10;87.30
80540;DHT22;69869;48.036;15.780;2023-06-22T06:28:06;21.10;87.40
80540;DHT22;69869;48.036;15.780;2023-06-22T06:30:31;21.10;87.40
80540;DHT22;69869;48.036;15.780;2023-06-22T06:32:57;21.10;87.60
80540;DHT22;69869;48.036;15.780;2023-06-22T06:35:23;21.10;87.50
80540;DHT22;69869;48.036;15.780;2023-06-22T06:37:50;21.10;87.70
80540;DHT22;69869;48.036;15.780;2023-06-22T06:40:16;21.10;87.60
80540;DHT22;69869;48.036;15.780;2023-06-22T06:42:44;21.10;87.30
80540;DHT22;69869;48.036;15.780;2023-06-22T06:45:21;21.10;87.20
80540;DHT22;69869;48.036;15.780;2023-06-22T06:47:51;21.10;87.30
80540;DHT22;69869;48.036;15.780;2023-06-22T06:50:18;21.10;87.40
80540;DHT22;69869;48.036;15.780;2023-06-22T06:52:44;21.10;87.30
80540;DHT22;69869;48.036;15.780;2023-06-22T06:55:10;21.10;87.20
80540;DHT22;69869;48.036;15.780;2023-06-22T06:57:38;21.10;87.30
80540;DHT22;69869;48.036;15.780;2023-06-22T07:00:09;21.10;87.50
80540;DHT22;69869;48.036;15.780;2023-06-22T07:02:38;21.10;87.60
80540;DHT22;69869;48.036;15.780;2023-06-22T07:05:05;21.10;87.90
80540;DHT22;69869;48.036;15.780;2023-06-22T07:07:32;21.10;88.00
80540;DHT22;69869;48.036;15.780;2023-06-22T07:09:57;21.10;88.00
80540;DHT22;69869;48.036;15.780;2023-06-22T07:12:23;21.10;88.00
80540;DHT22;69869;48.036;15.780;2023-06-22T07:14:49;21.10;88.00
80540;DHT22;69869;48.036;15.780;2023-06-22T07:17:15;21.10;88.00
80540;DHT22;69869;48.036;15.780;2023-06-22T07:19:41;21.10;87.80
80540;DHT22;69869;48.036;15.780;2023-06-22T07:22:07;21.10;88.00
80540;DHT22;69869;48.036;15.780;2023-06-22T07:24:33;21.10;88.00
80540;DHT22;69869;48.036;15.780;2023-06-22T07:26:59;21.10;88.00
80540;DHT22;69869;48.036;15.780;2023-06-22T07:29:25;21.10;88.00
80540;DHT22;69869;48.036;15.780;2023-06-22T07:31:52;21.10;87.70
80540;DHT22;69869;48.036;15.780;2023-06-22T07:34:18;21.10;87.90
80540;DHT22;69869;48.036;15.780;2023-06-22T07:36:44;21.10;88.00
80540;DHT22;69869;48.036;15.780;2023-06-22T07:39:10;21.10;88.00
80540;DHT22;69869;48.036;15.780;2023-06-22T07:41:38;21.10;88.00
80540;DHT22;69869;48.036;15.780;2023-06-22T07:44:04;21.10;87.80
80540;DHT22;69869;48.036;15.780;2023-06-22T07:46:31;21.10;87.50
80540;DHT22;69869;48.036;15.780;2023-06-22T07:48:57;21.10;87.50
80540;DHT22;69869;48.036;15.780;2023-06-22T07:51:23;21.10;87.80
80540;DHT22;69869;48.036;15.780;2023-06-22T07:53:49;21.10;87.80
80540;DHT22;69869;48.036;15.780;2023-06-22T07:56:15;21.10;87.70
80540;DHT22;69869;48.036;15.780;2023-06-22T07:58:47;21.10;88.00
80540;DHT22;69869;48.036;15.780;2023-06-22T08:01:16;21.10;87.80
80540;DHT22;69869;48.036;15.780;2023-06-22T08:03:42;21.10;87.80
80540;DHT22;69869;48.036;15.780;2023-06-22T08:06:09;21.10;87.60
80540;DHT22;69869;48.036;15.780;2023-06-22T08:08:36;21.10;87.70
80540;DHT22;69869;48.036;15.780;2023-06-22T08:11:01;21.20;87.90
80540;DHT22;69869;48.036;15.780;2023-06-22T08:13:27;21.20;88.20
80540;DHT22;69869;48.036;15.780;2023-06-22T08:15:53;21.20;87.80
80540;DHT22;69869;48.036;15.780;2023-06-22T08:18:19;21.20;87.80
80540;DHT22;69869;48.036;15.780;2023-06-22T08:20:44;21.10;87.50
80540;DHT22;69869;48.036;15.780;2023-06-22T08:23:10;21.10;87.30
80540;DHT22;69869;48.036;15.780;2023-06-22T08:25:36;21.20;87.70
80540;DHT22;69869;48.036;15.780;2023-06-22T08:28:02;21.20;87.80
80540;DHT22;69869;48.036;15.780;2023-06-22T08:30:28;21.20;88.20
80540;DHT22;69869;48.036;15.780;2023-06-22T08:32:54;21.10;87.80
80540;DHT22;69869;48.036;15.780;2023-06-22T08:35:23;21.10;87.70
80540;DHT22;69869;48.036;15.780;2023-06-22T08:37:49;21.20;87.80
80540;DHT22;69869;48.036;15.780;2023-06-22T08:40:18;21.20;87.80
80540;DHT22;69869;48.036;15.780;2023-06-22T08:42:48;21.20;88.80
80540;DHT22;69869;48.036;15.780;2023-06-22T08:45:17;21.20;88.20
80540;DHT22;69869;48.036;15.780;2023-06-22T08:47:42;21.20;88.10
80540;DHT22;69869;48.036;15.780;2023-06-22T08:50:09;21.20;87.80
80540;DHT22;69869;48.036;15.780;2023-06-22T08:52:36;21.20;88.20
80540;DHT22;69869;48.036;15.780;2023-06-22T08:55:03;21.20;88.20
80540;DHT22;69869;48.036;15.780;2023-06-22T08:57:28;21.20;88.20
80540;DHT22;69869;48.036;15.780;2023-06-22T08:59:56;21.20;88.00
80540;DHT22;69869;48.036;15.780;2023-06-22T09:02:24;21.20;87.80
80540;DHT22;69869;48.036;15.780;2023-06-22T09:04:50;21.20;87.70
80540;DHT22;69869;48.036;15.780;2023-06-22T09:07:24;21.20;88.00
80540;DHT22;69869;48.036;15.780;2023-06-22T09:09:51;21.20;87.60
80540;DHT22;69869;48.036;15.780;2023-06-22T09:12:18;21.10;88.00
80540;DHT22;69869;48.036;15.780;2023-06-22T09:14:45;21.20;88.20
80540;DHT22;69869;48.036;15.780;2023-06-22T09:17:12;21.20;88.20
80540;DHT22;69869;48.036;15.780;2023-06-22T09:19:38;21.20;88.10
80540;DHT22;69869;48.036;15.780;2023-06-22T09:22:04;21.20;88.20
80540;DHT22;69869;48.036;15.780;2023-06-22T09:24:32;21.20;88.20
80540;DHT22;69869;48.036;15.780;2023-06-22T09:26:57;21.20;88.20
80540;DHT22;69869;48.036;15.780;2023-06-22T09:29:23;21.20;88.20
80540;DHT22;69869;48.036;15.780;2023-06-22T09:31:49;21.20;88.00
80540;DHT22;69869;48.036;15.780;2023-06-22T09:34:15;21.20;88.50
80540;DHT22;69869;48.036;15.780;2023-06-22T09:36:46;21.20;88.20
80540;DHT22;69869;48.036;15.780;2023-06-22T09:39:12;21.20;88.20
80540;DHT22;69869;48.036;15.780;2023-06-22T09:41:37;21.20;88.50
80540;DHT22;69869;48.036;15.780;2023-06-22T09:44:03;21.20;88.60
80540;DHT22;69869;48.036;15.780;2023-06-22T09:46:29;21.20;88.30
80540;DHT22;69869;48.036;15.780;2023-06-22T09:48:55;21.20;88.80
80540;DHT22;69869;48.036;15.780;2023-06-22T09:51:20;21.20;88.80
80540;DHT22;69869;48.036;15.780;2023-06-22T09:53:47;21.20;88.80
80540;DHT22;69869;48.036;15.780;2023-06-22T09:56:13;21.20;88.60
80540;DHT22;69869;48.036;15.780;2023-06-22T09:58:46;21.20;89.40
80540;DHT22;69869;48.036;15.780;2023-06-22T10:01:12;21.30;89.40
80540;DHT22;69869;48.036;15.780;2023-06-22T10:03:40;21.20;89.30
80540;DHT22;69869;48.036;15.780;2023-06-22T10:06:06;21.30;90.20
80540;DHT22;69869;48.036;15.780;2023-06-22T10:08:32;21.30;89.40
80540;DHT22;69869;48.036;15.780;2023-06-22T10:10:58;21.20;89.40
80540;DHT22;69869;48.036;15.780;2023-06-22T10:13:24;21.20;89.30
80540;DHT22;69869;48.036;15.780;2023-06-22T10:15:49;21.30;89.30
80540;DHT22;69869;48.036;15.780;2023-06-22T10:18:17;21.20;89.20
80540;DHT22;69869;48.036;15.780;2023-06-22T10:20:46;21.20;89.10
80540;DHT22;69869;48.036;15.780;2023-06-22T10:23:12;21.20;88.70
80540;DHT22;69869;48.036;15.780;2023-06-22T10:25:37;21.20;89.50
80540;DHT22;69869;48.036;15.780;2023-06-22T10:28:03;21.20;89.10
80540;DHT22;69869;48.036;15.780;2023-06-22T10:30:29;21.30;89.50
80540;DHT22;69869;48.036;15.780;2023-06-22T10:32:54;21.30;89.40
80540;DHT22;69869;48.036;15.780;2023-06-22T10:35:23;21.30;89.30
80540;DHT22;69869;48.036;15.780;2023-06-22T10:37:49;21.20;88.90
80540;DHT22;69869;48.036;15.780;2023-06-22T10:40:16;21.20;89.20
80540;DHT22;69869;48.036;15.780;2023-06-22T10:42:42;21.20;89.40
80540;DHT22;69869;48.036;15.780;2023-06-22T10:45:08;21.20;88.50
80540;DHT22;69869;48.036;15.780;2023-06-22T10:47:35;21.20;88.80
80540;DHT22;69869;48.036;15.780;2023-06-22T10:50:01;21.20;88.50
80540;DHT22;69869;48.036;15.780;2023-06-22T10:52:27;21.30;88.70
80540;DHT22;69869;48.036;15.780;2023-06-22T10:54:53;21.20;89.50
80540;DHT22;69869;48.036;15.780;2023-06-22T10:57:19;21.20;88.40
80540;DHT22;69869;48.036;15.780;2023-06-22T10:59:44;21.20;89.20
80540;DHT22;69869;48.036;15.780;2023-06-22T11:02:10;21.20;89.10
80540;DHT22;69869;48.036;15.780;2023-06-22T11:04:36;21.20;88.50
80540;DHT22;69869;48.036;15.780;2023-06-22T11:07:02;21.20;88.30
80540;DHT22;69869;48.036;15.780;2023-06-22T11:09:28;21.30;89.00
80540;DHT22;69869;48.036;15.780;2023-06-22T11:11:55;21.30;88.30
80540;DHT22;69869;48.036;15.780;2023-06-22T11:14:22;21.30;88.80
80540;DHT22;69869;48.036;15.780;2023-06-22T11:16:48;21.30;88.60
80540;DHT22;69869;48.036;15.780;2023-06-22T11:19:14;21.30;88.40
80540;DHT22;69869;48.036;15.780;2023-06-22T11:21:40;21.30;88.90
80540;DHT22;69869;48.036;15.780;2023-06-22T11:24:05;21.30;89.00
80540;DHT22;69869;48.036;15.780;2023-06-22T11:26:31;21.30;88.70
80540;DHT22;69869;48.036;15.780;2023-06-22T11:28:58;21.30;88.90
80540;DHT22;69869;48.036;15.780;2023-06-22T11:31:24;21.30;89.40
80540;DHT22;69869;48.036;15.780;2023-06-22T11:33:50;21.40;88.90
80540;DHT22;69869;48.036;15.780;2023-06-22T11:36:16;21.30;88.60
80540;DHT22;69869;48.036;15.780;2023-06-22T11:38:42;21.30;88.90
80540;DHT22;69869;48.036;15.780;2023-06-22T11:41:09;21.30;88.20
80540;DHT22;69869;48.036;15.780;2023-06-22T11:43:35;21.30;88.80
80540;DHT22;69869;48.036;15.780;2023-06-22T11:46:03;21.30;88.30
80540;DHT22;69869;48.036;15.780;2023-06-22T11:48:29;21.30;88.40
80540;DHT22;69869;48.036;15.780;2023-06-22T11:50:55;21.30;88.80
80540;DHT22;69869;48.036;15.780;2023-06-22T11:53:22;21.30;89.60
80540;DHT22;69869;48.036;15.780;2023-06-22T11:55:47;21.30;88.50
80540;DHT22;69869;48.036;15.780;2023-06-22T11:58:14;21.30;88.70
80540;DHT22;69869;48.036;15.780;2023-06-22T12:00:40;21.30;88.60
80540;DHT22;69869;48.036;15.780;2023-06-22T12:03:07;21.40;89.00
80540;DHT22;69869;48.036;15.780;2023-06-22T12:05:32;21.30;89.40
80540;DHT22;69869;48.036;15.780;2023-06-22T12:07:58;21.30;88.30
80540;DHT22;69869;48.036;15.780;2023-06-22T12:10:25;21.30;88.60
80540;DHT22;69869;48.036;15.780;2023-06-22T12:12:51;21.30;88.60
80540;DHT22;69869;48.036;15.780;2023-06-22T12:15:17;21.30;88.60
80540;DHT22;69869;48.036;15.780;2023-06-22T12:17:43;21.30;87.80
80540;DHT22;69869;48.036;15.780;2023-06-22T12:20:08;21.30;88.30
80540;DHT22;69869;48.036;15.780;2023-06-22T12:22:34;21.30;88.30
80540;DHT22;69869;48.036;15.780;2023-06-22T12:25:01;21.30;88.30
80540;DHT22;69869;48.036;15.780;2023-06-22T12:27:27;21.30;88.90
80540;DHT22;69869;48.036;15.780;2023-06-22T12:29:52;21.30;89.00
80540;DHT22;69869;48.036;15.780;2023-06-22T12:32:18;21.30;89.10
80540;DHT22;69869;48.036;15.780;2023-06-22T12:34:44;21.30;89.20
80540;DHT22;69869;48.036;15.780;2023-06-22T12:37:10;21.30;89.10
80540;DHT22;69869;48.036;15.780;2023-06-22T12:39:36;21.30;88.30
80540;DHT22;69869;48.036;15.780;2023-06-22T12:42:03;21.30;88.60
80540;DHT22;69869;48.036;15.780;2023-06-22T12:44:29;21.30;88.90
80540;DHT22;69869;48.036;15.780;2023-06-22T12:46:54;21.30;88.30
80540;DHT22;69869;48.036;15.780;2023-06-22T12:49:20;21.30;88.50
80540;DHT22;69869;48.036;15.780;2023-06-22T12:51:46;21.30;88.30
80540;DHT22;69869;48.036;15.780;2023-06-22T12:54:11;21.20;88.80
80540;DHT22;69869;48.036;15.780;2023-06-22T12:56:38;21.30;88.90
80540;DHT22;69869;48.036;15.780;2023-06-22T12:59:04;21.30;88.00
80540;DHT22;69869;48.036;15.780;2023-06-22T13:01:31;21.30;88.30
80540;DHT22;69869;48.036;15.780;2023-06-22T13:03:58;21.30;89.60
80540;DHT22;69869;48.036;15.780;2023-06-22T13:06:24;21.40;90.00
80540;DHT22;69869;48.036;15.780;2023-06-22T13:08:50;21.40;89.50
80540;DHT22;69869;48.036;15.780;2023-06-22T13:11:16;21.40;89.10
80540;DHT22;69869;48.036;15.780;2023-06-22T13:13:42;21.40;89.70
80540;DHT22;69869;48.036;15.780;2023-06-22T13:16:07;21.40;89.30
80540;DHT22;69869;48.036;15.780;2023-06-22T13:18:33;21.40;90.00
80540;DHT22;69869;48.036;15.780;2023-06-22T13:21:01;21.40;90.00
80540;DHT22;69869;48.036;15.780;2023-06-22T13:23:27;21.40;89.10
80540;DHT22;69869;48.036;15.780;2023-06-22T13:25:53;21.40;89.30
80540;DHT22;69869;48.036;15.780;2023-06-22T13:28:18;21.40;90.00
80540;DHT22;69869;48.036;15.780;2023-06-22T13:30:46;21.40;89.40
80540;DHT22;69869;48.036;15.780;2023-06-22T13:33:13;21.40;90.00
80540;DHT22;69869;48.036;15.780;2023-06-22T13:35:39;21.40;89.10
80540;DHT22;69869;48.036;15.780;2023-06-22T13:38:05;21.40;88.90
80540;DHT22;69869;48.036;15.780;2023-06-22T13:40:30;21.40;88.50
80540;DHT22;69869;48.036;15.780;2023-06-22T13:42:56;21.40;90.00
80540;DHT22;69869;48.036;15.780;2023-06-22T13:45:22;21.30;88.90
80540;DHT22;69869;48.036;15.780;2023-06-22T13:47:48;21.40;89.80
80540;DHT22;69869;48.036;15.780;2023-06-22T13:50:14;21.40;88.70
80540;DHT22;69869;48.036;15.780;2023-06-22T13:52:40;21.40;88.80
80540;DHT22;69869;48.036;15.780;2023-06-22T13:55:06;21.30;88.60
80540;DHT22;69869;48.036;15.780;2023-06-22T13:57:33;21.40;89.20
80540;DHT22;69869;48.036;15.780;2023-06-22T13:59:59;21.40;89.40
80540;DHT22;69869;48.036;15.780;2023-06-22T14:02:28;21.40;89.40
80540;DHT22;69869;48.036;15.780;2023-06-22T14:04:54;21.30;88.60
80540;DHT22;69869;48.036;15.780;2023-06-22T14:07:19;21.40;88.50
80540;DHT22;69869;48.036;15.780;2023-06-22T14:09:46;21.40;88.70
80540;DHT22;69869;48.036;15.780;2023-06-22T14:12:12;21.40;90.00
80540;DHT22;69869;48.036;15.780;2023-06-22T14:14:38;21.30;89.30
80540;DHT22;69869;48.036;15.780;2023-06-22T14:17:05;21.40;89.10
80540;DHT22;69869;48.036;15.780;2023-06-22T14:19:30;21.40;88.70
80540;DHT22;69869;48.036;15.780;2023-06-22T14:21:56;21.40;89.90
80540;DHT22;69869;48.036;15.780;2023-06-22T14:24:23;21.40;88.40
80540;DHT22;69869;48.036;15.780;2023-06-22T14:26:48;21.40;89.20
80540;DHT22;69869;48.036;15.780;2023-06-22T14:29:14;21.40;88.80
80540;DHT22;69869;48.036;15.780;2023-06-22T14:31:40;21.40;88.50
80540;DHT22;69869;48.036;15.780;2023-06-22T14:34:06;21.40;87.50
80540;DHT22;69869;48.036;15.780;2023-06-22T14:36:32;21.40;87.80
80540;DHT22;69869;48.036;15.780;2023-06-22T14:38:57;21.40;87.80
80540;DHT22;69869;48.036;15.780;2023-06-22T14:41:23;21.50;88.70
80540;DHT22;69869;48.036;15.780;2023-06-22T14:43:52;21.50;87.80
80540;DHT22;69869;48.036;15.780;2023-06-22T14:46:18;21.50;88.50
80540;DHT22;69869;48.036;15.780;2023-06-22T14:48:44;21.50;88.10
80540;DHT22;69869;48.036;15.780;2023-06-22T14:51:11;21.50;89.30
80540;DHT22;69869;48.036;15.780;2023-06-22T14:53:37;21.60;89.40
80540;DHT22;69869;48.036;15.780;2023-06-22T14:56:03;21.60;87.80
80540;DHT22;69869;48.036;15.780;2023-06-22T14:58:31;21.60;89.30
80540;DHT22;69869;48.036;15.780;2023-06-22T15:00:59;21.60;88.70
80540;DHT22;69869;48.036;15.780;2023-06-22T15:03:25;21.60;89.20
80540;DHT22;69869;48.036;15.780;2023-06-22T15:05:54;21.60;89.30
80540;DHT22;69869;48.036;15.780;2023-06-22T15:08:20;21.60;89.50
80540;DHT22;69869;48.036;15.780;2023-06-22T15:10:46;21.60;89.00
80540;DHT22;69869;48.036;15.780;2023-06-22T15:13:12;21.60;89.10
80540;DHT22;69869;48.036;15.780;2023-06-22T15:15:37;21.60;89.10
80540;DHT22;69869;48.036;15.780;2023-06-22T15:18:03;21.60;89.10
80540;DHT22;69869;48.036;15.780;2023-06-22T15:20:29;21.60;88.60